sensor_id;sensor_type;location;lat;lon;timestamp;pressure;altitude;pressure_sealevel;temperature;humidity
57232;BME280;43488;46.934;8.276;2023-03-21T00:00:55;96731.44;;;8.74;85.75
57232;BME280;43488;46.934;8.276;2023-03-21T00:03:24;96725.38;;;8.73;85.50
57232;BME280;43488;46.934;8.276;2023-03-21T00:05:52;96724.56;;;8.73;84.92
57232;BME280;43488;46.934;8.276;2023-03-21T00:08:21;96719.72;;;8.70;84.22
57232;BME280;43488;46.934;8.276;2023-03-21T00:11:00;96725.22;;;8.53;83.91
57232;BME280;43488;46.934;8.276;2023-03-21T00:13:29;96724.97;;;8.48;82.97
57232;BME280;43488;46.934;8.276;2023-03-21T00:16:16;96726.78;;;8.48;83.72
57232;BME280;43488;46.934;8.276;2023-03-21T00:18:48;96730.16;;;8.42;82.91
57232;BME280;43488;46.934;8.276;2023-03-21T00:21:21;96726.47;;;8.36;83.04
57232;BME280;43488;46.934;8.276;2023-03-21T00:23:48;96723.03;;;8.36;83.24
57232;BME280;43488;46.934;8.276;2023-03-21T00:26:16;96721.81;;;8.17;82.85
57232;BME280;43488;46.934;8.276;2023-03-21T00:28:43;96732.84;;;8.12;82.70
57232;BME280;43488;46.934;8.276;2023-03-21T00:31:11;96726.81;;;8.12;82.59
57232;BME280;43488;46.934;8.276;2023-03-21T00:33:39;96725.09;;;8.04;83.02
57232;BME280;43488;46.934;8.276;2023-03-21T00:36:08;96726.47;;;8.00;84.44
57232;BME280;43488;46.934;8.276;2023-03-21T00:38:36;96714.81;;;8.03;84.46
57232;BME280;43488;46.934;8.276;2023-03-21T00:41:05;96713.66;;;8.05;84.54
57232;BME280;43488;46.934;8.276;2023-03-21T00:43:33;96718.44;;;8.02;84.83
57232;BME280;43488;46.934;8.276;2023-03-21T00:46:00;96711.03;;;8.05;85.95
57232;BME280;43488;46.934;8.276;2023-03-21T00:48:28;96707.94;;;8.02;84.82
57232;BME280;43488;46.934;8.276;2023-03-21T00:50:56;96714.69;;;7.89;84.87
57232;BME280;43488;46.934;8.276;2023-03-21T00:53:26;96714.69;;;7.89;85.84
57232;BME280;43488;46.934;8.276;2023-03-21T00:55:54;96716.72;;;7.94;87.07
57232;BME280;43488;46.934;8.276;2023-03-21T00:58:21;96710.63;;;7.87;86.80
57232;BME280;43488;46.934;8.276;2023-03-21T01:00:48;96704.19;;;7.89;86.74
57232;BME280;43488;46.934;8.276;2023-03-21T01:03:16;96707.53;;;7.83;86.24
57232;BME280;43488;46.934;8.276;2023-03-21T01:05:47;96703.03;;;7.77;85.26
57232;BME280;43488;46.934;8.276;2023-03-21T01:08:39;96709.66;;;7.73;83.75
57232;BME280;43488;46.934;8.276;2023-03-21T01:11:13;96711.84;;;7.55;82.98
57232;BME280;43488;46.934;8.276;2023-03-21T01:13:40;96715.19;;;7.49;83.55
57232;BME280;43488;46.934;8.276;2023-03-21T01:16:08;96703.66;;;7.43;83.65
57232;BME280;43488;46.934;8.276;2023-03-21T01:18:38;96704.19;;;7.38;83.88
57232;BME280;43488;46.934;8.276;2023-03-21T01:21:11;96701.56;;;7.38;85.91
57232;BME280;43488;46.934;8.276;2023-03-21T01:23:42;96702.38;;;7.39;87.78
57232;BME280;43488;46.934;8.276;2023-03-21T01:26:10;96698.41;;;7.43;87.32
57232;BME280;43488;46.934;8.276;2023-03-21T01:28:41;96697.78;;;7.41;85.89
57232;BME280;43488;46.934;8.276;2023-03-21T01:31:12;96701.41;;;7.25;85.63
57232;BME280;43488;46.934;8.276;2023-03-21T01:33:40;96687.59;;;7.17;86.66
57232;BME280;43488;46.934;8.276;2023-03-21T01:36:17;96700.59;;;7.10;87.02
57232;BME280;43488;46.934;8.276;2023-03-21T01:38:44;96697.16;;;6.95;88.80
57232;BME280;43488;46.934;8.276;2023-03-21T01:41:34;96693.44;;;7.04;89.64
57232;BME280;43488;46.934;8.276;2023-03-21T01:44:03;96694.72;;;7.08;90.64
57232;BME280;43488;46.934;8.276;2023-03-21T01:46:44;96685.88;;;7.09;91.10
57232;BME280;43488;46.934;8.276;2023-03-21T01:49:30;96680.94;;;7.14;90.51
57232;BME280;43488;46.934;8.276;2023-03-21T01:52:06;96682.97;;;7.04;89.81
57232;BME280;43488;46.934;8.276;2023-03-21T01:54:37;96680.53;;;7.02;90.48
57232;BME280;43488;46.934;8.276;2023-03-21T01:57:17;96673.16;;;7.06;90.05
57232;BME280;43488;46.934;8.276;2023-03-21T01:59:50;96671.63;;;6.97;89.92
57232;BME280;43488;46.934;8.276;2023-03-21T02:02:26;96674.41;;;6.80;90.30
57232;BME280;43488;46.934;8.276;2023-03-21T02:04:54;96671.78;;;6.80;90.73
57232;BME280;43488;46.934;8.276;2023-03-21T02:07:33;96667.81;;;6.84;91.05
57232;BME280;43488;46.934;8.276;2023-03-21T02:10:11;96667.56;;;6.79;91.12
57232;BME280;43488;46.934;8.276;2023-03-21T02:12:40;96667.56;;;6.79;91.20
57232;BME280;43488;46.934;8.276;2023-03-21T02:15:08;96675.50;;;6.86;90.28
57232;BME280;43488;46.934;8.276;2023-03-21T02:18:01;96675.31;;;6.88;89.13
57232;BME280;43488;46.934;8.276;2023-03-21T02:21:26;96672.34;;;6.91;87.82
57232;BME280;43488;46.934;8.276;2023-03-21T02:24:33;96666.47;;;6.89;88.23
57232;BME280;43488;46.934;8.276;2023-03-21T02:27:18;96656.19;;;6.87;87.82
57232;BME280;43488;46.934;8.276;2023-03-21T02:36:15;96643.91;;;6.73;88.29
57232;BME280;43488;46.934;8.276;2023-03-21T02:39:13;96650.84;;;6.66;88.97
57232;BME280;43488;46.934;8.276;2023-03-21T02:47:32;96643.88;;;6.58;88.56
57232;BME280;43488;46.934;8.276;2023-03-21T02:50:15;96654.44;;;6.50;88.38
57232;BME280;43488;46.934;8.276;2023-03-21T02:52:46;96647.47;;;6.42;89.43
57232;BME280;43488;46.934;8.276;2023-03-21T02:55:23;96649.91;;;6.44;89.85
57232;BME280;43488;46.934;8.276;2023-03-21T02:57:53;96645.94;;;6.48;89.63
57232;BME280;43488;46.934;8.276;2023-03-21T03:00:25;96647.22;;;6.52;88.74
57232;BME280;43488;46.934;8.276;2023-03-21T03:02:53;96656.75;;;6.45;88.15
57232;BME280;43488;46.934;8.276;2023-03-21T03:05:29;96650.97;;;6.35;88.75
57232;BME280;43488;46.934;8.276;2023-03-21T03:11:21;96651.25;;;6.40;89.37
57232;BME280;43488;46.934;8.276;2023-03-21T03:17:21;96653.72;;;6.18;89.70
57232;BME280;43488;46.934;8.276;2023-03-21T03:20:07;96648.13;;;6.21;89.47
57232;BME280;43488;46.934;8.276;2023-03-21T03:23:02;96653.22;;;6.23;89.09
57232;BME280;43488;46.934;8.276;2023-03-21T03:25:55;96646.34;;;6.22;88.90
57232;BME280;43488;46.934;8.276;2023-03-21T03:28:30;96652.03;;;6.25;89.29
57232;BME280;43488;46.934;8.276;2023-03-21T03:31:00;96660.25;;;6.22;88.44
57232;BME280;43488;46.934;8.276;2023-03-21T03:33:30;96658.94;;;6.18;87.20
57232;BME280;43488;46.934;8.276;2023-03-21T03:35:59;96654.72;;;6.17;86.78
57232;BME280;43488;46.934;8.276;2023-03-21T03:38:28;96660.25;;;5.99;86.60
57232;BME280;43488;46.934;8.276;2023-03-21T03:41:03;96663.84;;;5.98;87.47
57232;BME280;43488;46.934;8.276;2023-03-21T03:43:50;96668.63;;;5.95;88.26
57232;BME280;43488;46.934;8.276;2023-03-21T03:46:41;96655.38;;;5.96;89.66
57232;BME280;43488;46.934;8.276;2023-03-21T03:49:21;96660.53;;;6.05;89.57
57232;BME280;43488;46.934;8.276;2023-03-21T03:52:20;96662.16;;;6.06;89.60
57232;BME280;43488;46.934;8.276;2023-03-21T03:54:48;96666.28;;;6.00;90.23
57232;BME280;43488;46.934;8.276;2023-03-21T03:57:18;96659.59;;;5.97;90.39
57232;BME280;43488;46.934;8.276;2023-03-21T03:59:47;96654.75;;;5.86;90.60
57232;BME280;43488;46.934;8.276;2023-03-21T04:02:14;96661.47;;;5.81;90.28
57232;BME280;43488;46.934;8.276;2023-03-21T04:04:43;96656.94;;;5.75;88.80
57232;BME280;43488;46.934;8.276;2023-03-21T04:07:11;96655.81;;;5.77;89.16
57232;BME280;43488;46.934;8.276;2023-03-21T04:09:39;96657.97;;;5.65;89.52
57232;BME280;43488;46.934;8.276;2023-03-21T04:12:07;96652.06;;;5.71;89.92
57232;BME280;43488;46.934;8.276;2023-03-21T04:14:34;96654.69;;;5.71;91.01
57232;BME280;43488;46.934;8.276;2023-03-21T04:17:01;96655.50;;;5.72;91.23
57232;BME280;43488;46.934;8.276;2023-03-21T04:19:29;96654.19;;;5.76;90.93
57232;BME280;43488;46.934;8.276;2023-03-21T04:21:56;96648.59;;;5.79;89.81
57232;BME280;43488;46.934;8.276;2023-03-21T04:24:23;96649.34;;;5.65;88.46
57232;BME280;43488;46.934;8.276;2023-03-21T04:26:50;96648.41;;;5.58;88.97
57232;BME280;43488;46.934;8.276;2023-03-21T04:29:19;96650.84;;;5.59;89.37
57232;BME280;43488;46.934;8.276;2023-03-21T04:31:47;96646.91;;;5.63;89.40
57232;BME280;43488;46.934;8.276;2023-03-21T04:34:15;96648.69;;;5.63;88.41
57232;BME280;43488;46.934;8.276;2023-03-21T04:36:43;96649.69;;;5.62;88.17
57232;BME280;43488;46.934;8.276;2023-03-21T04:39:12;96652.94;;;5.64;88.31
57232;BME280;43488;46.934;8.276;2023-03-21T04:41:42;96648.69;;;5.63;88.69
57232;BME280;43488;46.934;8.276;2023-03-21T04:44:11;96646.25;;;5.61;88.96
57232;BME280;43488;46.934;8.276;2023-03-21T04:46:39;96646.91;;;5.63;88.47
57232;BME280;43488;46.934;8.276;2023-03-21T04:49:07;96646.91;;;5.63;88.84
57232;BME280;43488;46.934;8.276;2023-03-21T04:51:35;96642.84;;;5.61;89.01
57232;BME280;43488;46.934;8.276;2023-03-21T04:54:03;96645.72;;;5.66;88.69
57232;BME280;43488;46.934;8.276;2023-03-21T04:56:31;96642.84;;;5.61;88.10
57232;BME280;43488;46.934;8.276;2023-03-21T04:59:06;96647.13;;;5.54;88.92
57232;BME280;43488;46.934;8.276;2023-03-21T05:01:35;96653.84;;;5.48;89.06
57232;BME280;43488;46.934;8.276;2023-03-21T05:04:03;96645.72;;;5.43;89.84
57232;BME280;43488;46.934;8.276;2023-03-21T05:06:31;96639.25;;;5.31;90.17
57232;BME280;43488;46.934;8.276;2023-03-21T05:09:00;96640.78;;;5.17;91.15
57232;BME280;43488;46.934;8.276;2023-03-21T05:11:28;96639.50;;;5.13;91.78
57232;BME280;43488;46.934;8.276;2023-03-21T05:13:58;96628.25;;;5.12;92.99
57232;BME280;43488;46.934;8.276;2023-03-21T05:16:25;96631.50;;;5.14;92.71
57232;BME280;43488;46.934;8.276;2023-03-21T05:18:57;96631.50;;;5.14;92.20
57232;BME280;43488;46.934;8.276;2023-03-21T05:21:25;96631.47;;;5.23;92.41
57232;BME280;43488;46.934;8.276;2023-03-21T05:23:55;96627.34;;;5.28;92.54
57232;BME280;43488;46.934;8.276;2023-03-21T05:26:24;96626.53;;;5.28;91.71
57232;BME280;43488;46.934;8.276;2023-03-21T05:28:51;96627.56;;;5.19;90.89
57232;BME280;43488;46.934;8.276;2023-03-21T05:31:19;96621.56;;;5.10;90.53
57232;BME280;43488;46.934;8.276;2023-03-21T05:33:47;96620.31;;;4.98;90.83
57232;BME280;43488;46.934;8.276;2023-03-21T05:36:14;96625.22;;;4.93;90.88
57232;BME280;43488;46.934;8.276;2023-03-21T05:38:41;96627.69;;;4.94;90.24
57232;BME280;43488;46.934;8.276;2023-03-21T05:41:16;96632.22;;;4.92;90.18
57232;BME280;43488;46.934;8.276;2023-03-21T05:43:43;96632.91;;;4.94;92.20
57232;BME280;43488;46.934;8.276;2023-03-21T05:46:11;96628.56;;;5.09;92.15
57232;BME280;43488;46.934;8.276;2023-03-21T05:48:38;96625.28;;;5.16;92.12
57232;BME280;43488;46.934;8.276;2023-03-21T05:51:06;96626.56;;;5.20;90.47
57232;BME280;43488;46.934;8.276;2023-03-21T05:53:33;96623.31;;;5.18;89.77
57232;BME280;43488;46.934;8.276;2023-03-21T05:56:01;96622.66;;;5.24;89.86
57232;BME280;43488;46.934;8.276;2023-03-21T05:58:29;96620.69;;;5.26;91.04
57232;BME280;43488;46.934;8.276;2023-03-21T06:00:58;96614.13;;;5.30;91.27
57232;BME280;43488;46.934;8.276;2023-03-21T06:03:27;96623.28;;;5.26;91.75
57232;BME280;43488;46.934;8.276;2023-03-21T06:05:54;96621.13;;;5.29;91.85
57232;BME280;43488;46.934;8.276;2023-03-21T06:08:21;96622.94;;;5.29;91.19
57232;BME280;43488;46.934;8.276;2023-03-21T06:10:49;96618.44;;;5.14;91.06
57232;BME280;43488;46.934;8.276;2023-03-21T06:13:18;96622.50;;;5.17;90.98
57232;BME280;43488;46.934;8.276;2023-03-21T06:15:46;96617.06;;;5.27;91.25
57232;BME280;43488;46.934;8.276;2023-03-21T06:18:13;96628.13;;;5.37;91.04
57232;BME280;43488;46.934;8.276;2023-03-21T06:20:40;96626.00;;;5.40;90.19
57232;BME280;43488;46.934;8.276;2023-03-21T06:23:09;96630.41;;;5.40;89.90
57232;BME280;43488;46.934;8.276;2023-03-21T06:25:36;96634.03;;;5.31;89.85
57232;BME280;43488;46.934;8.276;2023-03-21T06:28:04;96624.00;;;5.42;89.59
57232;BME280;43488;46.934;8.276;2023-03-21T06:30:31;96633.06;;;5.55;89.22
57232;BME280;43488;46.934;8.276;2023-03-21T06:32:58;96640.72;;;5.56;88.77
57232;BME280;43488;46.934;8.276;2023-03-21T06:35:26;96644.50;;;5.54;90.15
57232;BME280;43488;46.934;8.276;2023-03-21T06:37:54;96646.31;;;5.53;90.03
57232;BME280;43488;46.934;8.276;2023-03-21T06:40:24;96646.31;;;5.53;89.47
57232;BME280;43488;46.934;8.276;2023-03-21T06:42:52;96649.44;;;5.49;89.71
57232;BME280;43488;46.934;8.276;2023-03-21T06:45:19;96655.47;;;5.49;89.82
57232;BME280;43488;46.934;8.276;2023-03-21T06:47:46;96652.28;;;5.62;89.65
57232;BME280;43488;46.934;8.276;2023-03-21T06:50:14;96648.81;;;5.69;89.42
57232;BME280;43488;46.934;8.276;2023-03-21T06:52:41;96656.44;;;5.79;89.30
57232;BME280;43488;46.934;8.276;2023-03-21T06:55:09;96652.28;;;5.93;89.00
57232;BME280;43488;46.934;8.276;2023-03-21T06:57:37;96652.84;;;6.03;89.02
57232;BME280;43488;46.934;8.276;2023-03-21T07:00:05;96649.47;;;6.17;89.20
57232;BME280;43488;46.934;8.276;2023-03-21T07:02:34;96647.91;;;6.31;89.58
57232;BME280;43488;46.934;8.276;2023-03-21T07:05:02;96651.25;;;6.40;89.60
57232;BME280;43488;46.934;8.276;2023-03-21T07:07:29;96651.91;;;6.42;91.08
57232;BME280;43488;46.934;8.276;2023-03-21T07:09:58;96651.16;;;6.48;92.13
57232;BME280;43488;46.934;8.276;2023-03-21T07:12:25;96657.13;;;6.56;91.70
57232;BME280;43488;46.934;8.276;2023-03-21T07:14:52;96659.88;;;6.78;90.94
57232;BME280;43488;46.934;8.276;2023-03-21T07:17:20;96655.44;;;6.93;90.65
57232;BME280;43488;46.934;8.276;2023-03-21T07:19:49;96652.66;;;7.09;90.33
57232;BME280;43488;46.934;8.276;2023-03-21T07:22:17;96652.28;;;7.27;89.42
57232;BME280;43488;46.934;8.276;2023-03-21T07:24:45;96653.69;;;7.45;89.08
57232;BME280;43488;46.934;8.276;2023-03-21T07:27:16;96649.25;;;7.60;89.61
57232;BME280;43488;46.934;8.276;2023-03-21T07:29:44;96651.81;;;7.75;90.19
57232;BME280;43488;46.934;8.276;2023-03-21T07:32:13;96647.75;;;7.93;89.75
57232;BME280;43488;46.934;8.276;2023-03-21T07:34:40;96647.78;;;8.15;88.26
57232;BME280;43488;46.934;8.276;2023-03-21T07:37:07;96643.63;;;8.27;86.00
57232;BME280;43488;46.934;8.276;2023-03-21T07:39:35;96646.97;;;8.36;85.70
57232;BME280;43488;46.934;8.276;2023-03-21T07:42:04;96643.53;;;8.35;87.33
57232;BME280;43488;46.934;8.276;2023-03-21T07:44:32;96646.38;;;8.40;87.72
57232;BME280;43488;46.934;8.276;2023-03-21T07:46:59;96635.63;;;8.57;87.02
57232;BME280;43488;46.934;8.276;2023-03-21T07:49:27;96634.59;;;8.58;85.09
57232;BME280;43488;46.934;8.276;2023-03-21T07:51:54;96627.00;;;8.63;83.18
57232;BME280;43488;46.934;8.276;2023-03-21T07:54:21;96627.03;;;8.69;81.33
57232;BME280;43488;46.934;8.276;2023-03-21T07:56:49;96625.03;;;8.71;81.89
57232;BME280;43488;46.934;8.276;2023-03-21T07:59:17;96636.88;;;8.61;80.87
57232;BME280;43488;46.934;8.276;2023-03-21T08:01:44;96631.53;;;8.82;81.28
57232;BME280;43488;46.934;8.276;2023-03-21T08:04:12;96628.16;;;8.88;80.53
57232;BME280;43488;46.934;8.276;2023-03-21T08:06:40;96632.00;;;8.92;80.45
57232;BME280;43488;46.934;8.276;2023-03-21T08:09:07;96631.50;;;9.10;80.31
57232;BME280;43488;46.934;8.276;2023-03-21T08:11:35;96635.81;;;9.24;80.97
57232;BME280;43488;46.934;8.276;2023-03-21T08:14:02;96642.69;;;9.32;81.74
57232;BME280;43488;46.934;8.276;2023-03-21T08:16:30;96635.69;;;9.46;79.71
57232;BME280;43488;46.934;8.276;2023-03-21T08:18:58;96632.31;;;9.65;81.50
57232;BME280;43488;46.934;8.276;2023-03-21T08:21:26;96646.50;;;9.84;80.16
57232;BME280;43488;46.934;8.276;2023-03-21T08:23:54;96642.09;;;9.91;79.59
57232;BME280;43488;46.934;8.276;2023-03-21T08:26:21;96640.91;;;10.13;78.64
57232;BME280;43488;46.934;8.276;2023-03-21T08:28:51;96624.34;;;10.26;78.26
57232;BME280;43488;46.934;8.276;2023-03-21T08:31:18;96628.63;;;10.34;77.77
57232;BME280;43488;46.934;8.276;2023-03-21T08:33:47;96619.50;;;10.30;71.52
57232;BME280;43488;46.934;8.276;2023-03-21T08:36:21;96621.94;;;10.38;73.57
57232;BME280;43488;46.934;8.276;2023-03-21T08:38:49;96616.63;;;10.51;70.40
57232;BME280;43488;46.934;8.276;2023-03-21T08:41:20;96616.63;;;10.71;65.45
57232;BME280;43488;46.934;8.276;2023-03-21T08:43:48;96611.34;;;10.77;65.67
57232;BME280;43488;46.934;8.276;2023-03-21T08:46:15;96614.56;;;10.86;65.30
57232;BME280;43488;46.934;8.276;2023-03-21T08:48:43;96611.91;;;10.99;64.61
57232;BME280;43488;46.934;8.276;2023-03-21T08:51:10;96603.56;;;11.09;65.27
57232;BME280;43488;46.934;8.276;2023-03-21T08:53:37;96604.75;;;11.13;65.07
57232;BME280;43488;46.934;8.276;2023-03-21T08:56:05;96604.28;;;11.36;64.74
57232;BME280;43488;46.934;8.276;2023-03-21T08:58:32;96602.47;;;11.30;69.40
57232;BME280;43488;46.934;8.276;2023-03-21T09:01:00;96606.25;;;11.47;69.17
57232;BME280;43488;46.934;8.276;2023-03-21T09:03:28;96605.47;;;11.40;68.49
57232;BME280;43488;46.934;8.276;2023-03-21T09:05:56;96600.19;;;11.40;68.71
57232;BME280;43488;46.934;8.276;2023-03-21T09:08:25;96607.88;;;11.48;67.94
57232;BME280;43488;46.934;8.276;2023-03-21T09:10:54;96606.97;;;11.61;68.63
57232;BME280;43488;46.934;8.276;2023-03-21T09:13:22;96604.63;;;11.53;66.53
57232;BME280;43488;46.934;8.276;2023-03-21T09:15:50;96610.19;;;11.69;66.13
57232;BME280;43488;46.934;8.276;2023-03-21T09:18:19;96612.16;;;11.87;66.84
57232;BME280;43488;46.934;8.276;2023-03-21T09:21:08;96594.38;;;12.76;63.12
57232;BME280;43488;46.934;8.276;2023-03-21T09:23:42;96604.78;;;11.96;65.89
57232;BME280;43488;46.934;8.276;2023-03-21T09:26:11;96604.41;;;11.92;65.21
57232;BME280;43488;46.934;8.276;2023-03-21T09:28:39;96610.38;;;11.75;66.50
57232;BME280;43488;46.934;8.276;2023-03-21T09:31:08;96610.97;;;11.83;69.55
57232;BME280;43488;46.934;8.276;2023-03-21T09:33:38;96603.97;;;11.95;68.70
57232;BME280;43488;46.934;8.276;2023-03-21T09:36:10;96598.84;;;12.07;67.46
57232;BME280;43488;46.934;8.276;2023-03-21T09:38:41;96610.47;;;12.00;67.08
57232;BME280;43488;46.934;8.276;2023-03-21T09:44:33;96606.44;;;12.22;67.35
57232;BME280;43488;46.934;8.276;2023-03-21T09:47:23;96603.19;;;12.20;66.20
57232;BME280;43488;46.934;8.276;2023-03-21T09:50:11;96601.19;;;12.15;65.16
57232;BME280;43488;46.934;8.276;2023-03-21T09:55:29;96600.13;;;12.48;64.54
57232;BME280;43488;46.934;8.276;2023-03-21T09:58:32;96593.56;;;12.57;62.51
57232;BME280;43488;46.934;8.276;2023-03-21T10:01:13;96604.59;;;12.72;62.61
57232;BME280;43488;46.934;8.276;2023-03-21T10:03:55;96601.28;;;12.77;60.65
57232;BME280;43488;46.934;8.276;2023-03-21T10:06:27;96592.06;;;12.61;60.39
57232;BME280;43488;46.934;8.276;2023-03-21T10:09:03;96591.88;;;12.63;61.02
57232;BME280;43488;46.934;8.276;2023-03-21T10:11:46;96599.72;;;12.69;62.79
57232;BME280;43488;46.934;8.276;2023-03-21T10:14:22;96599.88;;;12.74;63.10
57232;BME280;43488;46.934;8.276;2023-03-21T10:16:59;96595.63;;;12.73;63.55
57232;BME280;43488;46.934;8.276;2023-03-21T10:19:28;96590.72;;;12.77;65.23
57232;BME280;43488;46.934;8.276;2023-03-21T10:21:56;96587.53;;;12.68;65.95
57232;BME280;43488;46.934;8.276;2023-03-21T10:24:28;96591.56;;;12.71;68.50
57232;BME280;43488;46.934;8.276;2023-03-21T10:26:57;96581.63;;;12.73;65.65
57232;BME280;43488;46.934;8.276;2023-03-21T10:29:42;96589.56;;;12.91;65.08
57232;BME280;43488;46.934;8.276;2023-03-21T10:32:14;96587.63;;;12.80;66.28
57232;BME280;43488;46.934;8.276;2023-03-21T10:34:51;96585.31;;;13.27;65.11
57232;BME280;43488;46.934;8.276;2023-03-21T10:37:22;96578.72;;;13.36;64.66
57232;BME280;43488;46.934;8.276;2023-03-21T10:39:52;96582.16;;;13.66;63.86
57232;BME280;43488;46.934;8.276;2023-03-21T10:42:24;96578.78;;;13.89;61.90
57232;BME280;43488;46.934;8.276;2023-03-21T10:44:54;96578.94;;;14.06;63.35
57232;BME280;43488;46.934;8.276;2023-03-21T10:47:30;96581.16;;;14.21;61.62
57232;BME280;43488;46.934;8.276;2023-03-21T10:50:03;96578.41;;;14.28;64.74
57232;BME280;43488;46.934;8.276;2023-03-21T10:52:32;96574.50;;;14.42;60.39
57232;BME280;43488;46.934;8.276;2023-03-21T10:55:19;96573.69;;;14.30;61.01
57232;BME280;43488;46.934;8.276;2023-03-21T10:57:51;96578.75;;;14.31;59.93
57232;BME280;43488;46.934;8.276;2023-03-21T11:00:25;96571.53;;;14.50;59.44
57232;BME280;43488;46.934;8.276;2023-03-21T11:02:54;96569.44;;;14.87;59.50
57232;BME280;43488;46.934;8.276;2023-03-21T11:05:26;96572.91;;;14.52;61.15
57232;BME280;43488;46.934;8.276;2023-03-21T11:08:14;96564.19;;;14.64;62.26
57232;BME280;43488;46.934;8.276;2023-03-21T11:13:38;96570.47;;;14.98;59.42
57232;BME280;43488;46.934;8.276;2023-03-21T11:16:10;96560.13;;;15.36;58.85
57232;BME280;43488;46.934;8.276;2023-03-21T11:18:42;96571.97;;;15.46;55.13
57232;BME280;43488;46.934;8.276;2023-03-21T11:21:12;96559.78;;;15.73;53.74
57232;BME280;43488;46.934;8.276;2023-03-21T11:23:46;96546.47;;;15.45;55.71
57232;BME280;43488;46.934;8.276;2023-03-21T11:26:30;96547.59;;;15.60;51.72
57232;BME280;43488;46.934;8.276;2023-03-21T11:28:59;96549.81;;;15.97;51.05
57232;BME280;43488;46.934;8.276;2023-03-21T11:31:38;96545.56;;;16.30;51.17
57232;BME280;43488;46.934;8.276;2023-03-21T11:34:08;96541.47;;;16.05;51.95
57232;BME280;43488;46.934;8.276;2023-03-21T11:36:37;96540.72;;;16.27;52.75
57232;BME280;43488;46.934;8.276;2023-03-21T11:41:40;96523.56;;;16.51;50.99
57232;BME280;43488;46.934;8.276;2023-03-21T11:44:41;96520.59;;;16.64;49.44
57232;BME280;43488;46.934;8.276;2023-03-21T11:47:12;96523.28;;;16.86;49.80
57232;BME280;43488;46.934;8.276;2023-03-21T11:49:39;96516.41;;;16.90;50.37
57232;BME280;43488;46.934;8.276;2023-03-21T11:52:58;96502.81;;;16.87;49.22
57232;BME280;43488;46.934;8.276;2023-03-21T11:58:41;96496.25;;;17.38;48.47
57232;BME280;43488;46.934;8.276;2023-03-21T12:07:54;96481.72;;;17.78;47.78
57232;BME280;43488;46.934;8.276;2023-03-21T12:19:21;96471.94;;;17.83;46.46
57232;BME280;43488;46.934;8.276;2023-03-21T12:22:12;96462.31;;;17.55;48.22
57232;BME280;43488;46.934;8.276;2023-03-21T12:24:53;96459.50;;;17.13;48.81
57232;BME280;43488;46.934;8.276;2023-03-21T12:30:52;96448.34;;;17.38;47.05
57232;BME280;43488;46.934;8.276;2023-03-21T12:33:50;96454.09;;;17.57;48.47
57232;BME280;43488;46.934;8.276;2023-03-21T12:44:32;96438.63;;;17.54;48.60
57232;BME280;43488;46.934;8.276;2023-03-21T12:47:15;96431.69;;;17.53;46.69
57232;BME280;43488;46.934;8.276;2023-03-21T12:50:18;96431.88;;;17.46;48.29
57232;BME280;43488;46.934;8.276;2023-03-21T12:52:53;96434.25;;;17.43;48.16
57232;BME280;43488;46.934;8.276;2023-03-21T12:55:30;96426.03;;;17.44;47.88
57232;BME280;43488;46.934;8.276;2023-03-21T12:58:14;96419.22;;;17.85;46.74
57232;BME280;43488;46.934;8.276;2023-03-21T13:00:53;96424.41;;;18.02;45.40
57232;BME280;43488;46.934;8.276;2023-03-21T13:03:38;96419.22;;;17.85;45.57
57232;BME280;43488;46.934;8.276;2023-03-21T13:06:12;96424.81;;;17.84;45.10
57232;BME280;43488;46.934;8.276;2023-03-21T13:09:15;96418.75;;;17.34;45.29
57232;BME280;43488;46.934;8.276;2023-03-21T13:11:45;96417.13;;;17.28;46.79
57232;BME280;43488;46.934;8.276;2023-03-21T13:14:25;96410.50;;;17.36;44.55
57232;BME280;43488;46.934;8.276;2023-03-21T13:17:21;96414.84;;;17.42;45.26
57232;BME280;43488;46.934;8.276;2023-03-21T13:20:03;96412.50;;;17.78;44.03
57232;BME280;43488;46.934;8.276;2023-03-21T13:22:33;96411.38;;;17.74;43.19
57232;BME280;43488;46.934;8.276;2023-03-21T13:25:27;96413.22;;;18.05;43.62
57232;BME280;43488;46.934;8.276;2023-03-21T13:28:03;96409.09;;;17.55;43.89
57232;BME280;43488;46.934;8.276;2023-03-21T13:30:32;96409.25;;;17.71;44.08
57232;BME280;43488;46.934;8.276;2023-03-21T13:33:15;96408.88;;;17.62;44.89
57232;BME280;43488;46.934;8.276;2023-03-21T13:36:04;96408.84;;;17.84;45.79
57232;BME280;43488;46.934;8.276;2023-03-21T13:38:34;96400.41;;;17.65;45.90
57232;BME280;43488;46.934;8.276;2023-03-21T14:04:40;96384.38;;;18.39;44.48
57232;BME280;43488;46.934;8.276;2023-03-21T14:07:22;96377.53;;;18.06;45.07
57232;BME280;43488;46.934;8.276;2023-03-21T14:10:06;96380.56;;;17.78;45.63
57232;BME280;43488;46.934;8.276;2023-03-21T14:12:40;96378.72;;;17.51;46.09
57232;BME280;43488;46.934;8.276;2023-03-21T14:15:17;96395.06;;;17.33;46.57
57232;BME280;43488;46.934;8.276;2023-03-21T14:17:54;96385.56;;;17.10;46.40
57232;BME280;43488;46.934;8.276;2023-03-21T14:20:31;96383.03;;;16.98;47.38
57232;BME280;43488;46.934;8.276;2023-03-21T14:22:59;96380.53;;;17.14;46.13
57232;BME280;43488;46.934;8.276;2023-03-21T14:25:35;96386.53;;;17.31;47.47
57232;BME280;43488;46.934;8.276;2023-03-21T14:28:07;96375.53;;;17.54;48.91
57232;BME280;43488;46.934;8.276;2023-03-21T14:30:42;96377.63;;;17.74;49.17
57232;BME280;43488;46.934;8.276;2023-03-21T14:33:34;96381.94;;;17.53;47.74
57232;BME280;43488;46.934;8.276;2023-03-21T14:36:27;96382.38;;;17.72;46.37
57232;BME280;43488;46.934;8.276;2023-03-21T14:41:28;96373.38;;;17.78;47.76
57232;BME280;43488;46.934;8.276;2023-03-21T14:44:10;96378.25;;;17.91;48.22
57232;BME280;43488;46.934;8.276;2023-03-21T14:46:38;96375.09;;;18.00;47.82
57232;BME280;43488;46.934;8.276;2023-03-21T14:49:30;96380.72;;;18.03;48.11
57232;BME280;43488;46.934;8.276;2023-03-21T14:52:12;96380.75;;;18.08;47.94
57232;BME280;43488;46.934;8.276;2023-03-21T14:54:44;96367.19;;;18.15;47.91
57232;BME280;43488;46.934;8.276;2023-03-21T14:57:22;96369.06;;;17.72;48.12
57232;BME280;43488;46.934;8.276;2023-03-21T14:59:54;96371.06;;;17.92;47.73
57232;BME280;43488;46.934;8.276;2023-03-21T15:02:27;96371.78;;;17.82;48.32
57232;BME280;43488;46.934;8.276;2023-03-21T15:05:07;96369.81;;;18.10;47.67